sensor_id;sensor_type;location;lat;lon;timestamp;temperature;humidity
42365;DHT22;28498;54.400;18.566;2023-07-20T00:02:04;12.70;99.90
42365;DHT22;28498;54.400;18.566;2023-07-20T00:04:32;12.70;99.90
42365;DHT22;28498;54.400;18.566;2023-07-20T00:06:59;12.70;99.90
42365;DHT22;28498;54.400;18.566;2023-07-20T00:09:29;12.70;99.90
42365;DHT22;28498;54.400;18.566;2023-07-20T00:11:56;12.70;99.90
42365;DHT22;28498;54.400;18.566;2023-07-20T00:14:23;12.70;99.90
42365;DHT22;28498;54.400;18.566;2023-07-20T00:16:51;12.70;99.90
42365;DHT22;28498;54.400;18.566;2023-07-20T00:19:27;12.70;99.90
42365;DHT22;28498;54.400;18.566;2023-07-20T00:21:54;12.80;99.90
42365;DHT22;28498;54.400;18.566;2023-07-20T00:24:22;12.80;99.90
42365;DHT22;28498;54.400;18.566;2023-07-20T00:26:49;12.70;99.90
42365;DHT22;28498;54.400;18.566;2023-07-20T00:29:16;12.80;99.90
42365;DHT22;28498;54.400;18.566;2023-07-20T00:31:43;12.70;99.90
42365;DHT22;28498;54.400;18.566;2023-07-20T00:34:10;12.70;99.90
42365;DHT22;28498;54.400;18.566;2023-07-20T00:36:38;12.70;99.90
42365;DHT22;28498;54.400;18.566;2023-07-20T00:39:05;12.80;99.90
42365;DHT22;28498;54.400;18.566;2023-07-20T00:41:32;12.70;99.90
42365;DHT22;28498;54.400;18.566;2023-07-20T00:43:59;12.80;99.90
42365;DHT22;28498;54.400;18.566;2023-07-20T00:46:27;12.80;99.90
42365;DHT22;28498;54.400;18.566;2023-07-20T00:48:54;12.70;99.90
42365;DHT22;28498;54.400;18.566;2023-07-20T00:51:23;12.70;99.90
42365;DHT22;28498;54.400;18.566;2023-07-20T00:53:51;12.60;99.90
42365;DHT22;28498;54.400;18.566;2023-07-20T00:56:18;12.60;99.90
42365;DHT22;28498;54.400;18.566;2023-07-20T00:58:46;12.60;99.90
42365;DHT22;28498;54.400;18.566;2023-07-20T01:01:13;12.70;99.90
42365;DHT22;28498;54.400;18.566;2023-07-20T01:03:40;12.70;99.90
42365;DHT22;28498;54.400;18.566;2023-07-20T01:09:34;12.60;99.90
42365;DHT22;28498;54.400;18.566;2023-07-20T01:12:07;12.70;99.90
42365;DHT22;28498;54.400;18.566;2023-07-20T01:14:35;12.70;99.90
42365;DHT22;28498;54.400;18.566;2023-07-20T01:17:02;12.80;99.90
42365;DHT22;28498;54.400;18.566;2023-07-20T01:19:29;12.80;99.90
42365;DHT22;28498;54.400;18.566;2023-07-20T01:32:36;12.70;99.90
42365;DHT22;28498;54.400;18.566;2023-07-20T01:35:05;12.70;99.90
42365;DHT22;28498;54.400;18.566;2023-07-20T01:37:34;12.70;99.90
42365;DHT22;28498;54.400;18.566;2023-07-20T01:40:01;12.70;99.90
42365;DHT22;28498;54.400;18.566;2023-07-20T01:42:28;12.70;99.90
42365;DHT22;28498;54.400;18.566;2023-07-20T01:44:56;12.70;99.90
42365;DHT22;28498;54.400;18.566;2023-07-20T01:47:23;12.70;99.90
42365;DHT22;28498;54.400;18.566;2023-07-20T01:49:50;12.70;99.90
42365;DHT22;28498;54.400;18.566;2023-07-20T01:52:17;12.70;99.90
42365;DHT22;28498;54.400;18.566;2023-07-20T01:54:44;12.70;99.90
42365;DHT22;28498;54.400;18.566;2023-07-20T01:57:11;12.70;99.90
42365;DHT22;28498;54.400;18.566;2023-07-20T01:59:38;12.60;99.90
42365;DHT22;28498;54.400;18.566;2023-07-20T02:02:05;12.60;99.90
42365;DHT22;28498;54.400;18.566;2023-07-20T02:04:32;12.60;99.90
42365;DHT22;28498;54.400;18.566;2023-07-20T02:06:59;12.60;99.90
42365;DHT22;28498;54.400;18.566;2023-07-20T02:09:26;12.60;99.90
42365;DHT22;28498;54.400;18.566;2023-07-20T02:11:53;12.60;99.90
42365;DHT22;28498;54.400;18.566;2023-07-20T02:14:20;12.60;99.90
42365;DHT22;28498;54.400;18.566;2023-07-20T02:16:50;12.50;99.90
42365;DHT22;28498;54.400;18.566;2023-07-20T02:19:25;12.60;99.90
42365;DHT22;28498;54.400;18.566;2023-07-20T02:21:53;12.60;99.90
42365;DHT22;28498;54.400;18.566;2023-07-20T02:24:20;12.60;99.90
42365;DHT22;28498;54.400;18.566;2023-07-20T02:26:47;12.60;99.90
42365;DHT22;28498;54.400;18.566;2023-07-20T02:29:14;12.60;99.90
42365;DHT22;28498;54.400;18.566;2023-07-20T02:31:41;12.60;99.90
42365;DHT22;28498;54.400;18.566;2023-07-20T02:34:10;12.50;99.90
42365;DHT22;28498;54.400;18.566;2023-07-20T02:36:37;12.50;99.90
42365;DHT22;28498;54.400;18.566;2023-07-20T02:39:04;12.50;99.90
42365;DHT22;28498;54.400;18.566;2023-07-20T02:41:33;12.50;99.90
42365;DHT22;28498;54.400;18.566;2023-07-20T02:44:00;12.50;99.90
42365;DHT22;28498;54.400;18.566;2023-07-20T02:46:28;12.50;99.90
42365;DHT22;28498;54.400;18.566;2023-07-20T02:48:57;12.50;99.90
42365;DHT22;28498;54.400;18.566;2023-07-20T02:51:25;12.50;99.90
42365;DHT22;28498;54.400;18.566;2023-07-20T02:53:52;12.50;99.90
42365;DHT22;28498;54.400;18.566;2023-07-20T02:56:19;12.50;99.90
42365;DHT22;28498;54.400;18.566;2023-07-20T02:58:46;12.50;99.90
42365;DHT22;28498;54.400;18.566;2023-07-20T03:01:13;12.50;99.90
42365;DHT22;28498;54.400;18.566;2023-07-20T03:03:42;12.50;99.90
42365;DHT22;28498;54.400;18.566;2023-07-20T03:06:14;12.50;99.90
42365;DHT22;28498;54.400;18.566;2023-07-20T03:08:44;12.50;99.90
42365;DHT22;28498;54.400;18.566;2023-07-20T03:11:17;12.50;99.90
42365;DHT22;28498;54.400;18.566;2023-07-20T03:13:45;12.60;99.90
42365;DHT22;28498;54.400;18.566;2023-07-20T03:16:14;12.60;99.90
42365;DHT22;28498;54.400;18.566;2023-07-20T03:18:42;12.70;99.90
42365;DHT22;28498;54.400;18.566;2023-07-20T03:21:10;12.70;99.90
42365;DHT22;28498;54.400;18.566;2023-07-20T03:23:41;12.90;99.90
42365;DHT22;28498;54.400;18.566;2023-07-20T03:26:08;13.00;99.90
42365;DHT22;28498;54.400;18.566;2023-07-20T03:28:39;13.20;99.90
42365;DHT22;28498;54.400;18.566;2023-07-20T03:31:06;13.20;99.90
42365;DHT22;28498;54.400;18.566;2023-07-20T03:33:34;13.30;99.90
42365;DHT22;28498;54.400;18.566;2023-07-20T03:36:01;13.30;99.90
42365;DHT22;28498;54.400;18.566;2023-07-20T03:38:28;13.30;99.90
42365;DHT22;28498;54.400;18.566;2023-07-20T03:40:59;13.30;99.90
42365;DHT22;28498;54.400;18.566;2023-07-20T03:43:28;13.30;99.90
42365;DHT22;28498;54.400;18.566;2023-07-20T03:45:55;13.30;99.90
42365;DHT22;28498;54.400;18.566;2023-07-20T03:48:24;13.40;99.90
42365;DHT22;28498;54.400;18.566;2023-07-20T03:50:54;13.40;99.90
42365;DHT22;28498;54.400;18.566;2023-07-20T03:53:21;13.40;99.90
42365;DHT22;28498;54.400;18.566;2023-07-20T03:55:50;13.40;99.90
42365;DHT22;28498;54.400;18.566;2023-07-20T03:58:18;13.50;99.90
42365;DHT22;28498;54.400;18.566;2023-07-20T04:00:46;13.70;99.40
42365;DHT22;28498;54.400;18.566;2023-07-20T04:03:14;13.80;94.80
42365;DHT22;28498;54.400;18.566;2023-07-20T04:05:42;14.00;91.00
42365;DHT22;28498;54.400;18.566;2023-07-20T04:08:10;14.10;83.70
42365;DHT22;28498;54.400;18.566;2023-07-20T04:10:38;14.10;77.70
42365;DHT22;28498;54.400;18.566;2023-07-20T04:13:05;14.30;73.20
42365;DHT22;28498;54.400;18.566;2023-07-20T04:15:32;14.50;56.90
42365;DHT22;28498;54.400;18.566;2023-07-20T04:17:59;14.50;49.90
42365;DHT22;28498;54.400;18.566;2023-07-20T04:20:28;14.60;46.00
42365;DHT22;28498;54.400;18.566;2023-07-20T04:22:55;14.70;41.30
42365;DHT22;28498;54.400;18.566;2023-07-20T04:25:22;14.50;40.00
42365;DHT22;28498;54.400;18.566;2023-07-20T04:27:49;14.50;49.70
42365;DHT22;28498;54.400;18.566;2023-07-20T04:30:18;14.50;54.00
42365;DHT22;28498;54.400;18.566;2023-07-20T04:32:49;14.50;56.90
42365;DHT22;28498;54.400;18.566;2023-07-20T04:38:15;14.50;56.70
42365;DHT22;28498;54.400;18.566;2023-07-20T04:40:48;14.50;61.40
42365;DHT22;28498;54.400;18.566;2023-07-20T04:43:17;14.50;62.30
42365;DHT22;28498;54.400;18.566;2023-07-20T04:45:44;14.50;66.30
42365;DHT22;28498;54.400;18.566;2023-07-20T04:48:14;14.50;63.80
42365;DHT22;28498;54.400;18.566;2023-07-20T04:50:44;14.40;68.10
42365;DHT22;28498;54.400;18.566;2023-07-20T04:53:14;14.50;75.50
42365;DHT22;28498;54.400;18.566;2023-07-20T04:55:48;14.40;78.20
42365;DHT22;28498;54.400;18.566;2023-07-20T04:58:21;14.50;75.30
42365;DHT22;28498;54.400;18.566;2023-07-20T05:00:49;14.40;78.80
42365;DHT22;28498;54.400;18.566;2023-07-20T05:03:16;14.40;82.80
42365;DHT22;28498;54.400;18.566;2023-07-20T05:05:44;14.40;85.40
42365;DHT22;28498;54.400;18.566;2023-07-20T05:08:14;14.30;87.80
42365;DHT22;28498;54.400;18.566;2023-07-20T05:10:42;14.40;89.20
42365;DHT22;28498;54.400;18.566;2023-07-20T05:13:09;14.50;87.60
42365;DHT22;28498;54.400;18.566;2023-07-20T05:15:37;14.60;86.00
42365;DHT22;28498;54.400;18.566;2023-07-20T05:18:04;14.60;78.60
42365;DHT22;28498;54.400;18.566;2023-07-20T05:20:32;14.70;85.50
42365;DHT22;28498;54.400;18.566;2023-07-20T05:23:00;14.90;76.40
42365;DHT22;28498;54.400;18.566;2023-07-20T05:25:28;15.00;69.30
42365;DHT22;28498;54.400;18.566;2023-07-20T05:27:57;15.10;65.70
42365;DHT22;28498;54.400;18.566;2023-07-20T05:30:24;15.30;54.20
42365;DHT22;28498;54.400;18.566;2023-07-20T05:32:51;15.40;37.20
42365;DHT22;28498;54.400;18.566;2023-07-20T05:35:19;15.50;39.10
42365;DHT22;28498;54.400;18.566;2023-07-20T05:37:47;15.20;48.50
42365;DHT22;28498;54.400;18.566;2023-07-20T05:40:14;15.10;58.90
42365;DHT22;28498;54.400;18.566;2023-07-20T05:42:46;15.30;59.40
42365;DHT22;28498;54.400;18.566;2023-07-20T05:45:13;15.40;53.30
42365;DHT22;28498;54.400;18.566;2023-07-20T05:47:41;15.50;55.70
42365;DHT22;28498;54.400;18.566;2023-07-20T05:50:09;15.40;45.20
42365;DHT22;28498;54.400;18.566;2023-07-20T05:52:36;15.40;52.00
42365;DHT22;28498;54.400;18.566;2023-07-20T05:55:06;15.70;57.00
42365;DHT22;28498;54.400;18.566;2023-07-20T05:57:33;15.60;35.40
42365;DHT22;28498;54.400;18.566;2023-07-20T06:00:01;15.70;32.40
42365;DHT22;28498;54.400;18.566;2023-07-20T06:02:28;15.80;35.30
42365;DHT22;28498;54.400;18.566;2023-07-20T06:04:55;15.90;29.90
42365;DHT22;28498;54.400;18.566;2023-07-20T06:07:22;16.00;20.00
42365;DHT22;28498;54.400;18.566;2023-07-20T06:09:49;16.10;10.00
42365;DHT22;28498;54.400;18.566;2023-07-20T06:12:16;15.90;4.80
42365;DHT22;28498;54.400;18.566;2023-07-20T06:14:43;16.10;13.00
42365;DHT22;28498;54.400;18.566;2023-07-20T06:17:10;16.20;1.00
42365;DHT22;28498;54.400;18.566;2023-07-20T06:19:37;16.10;1.90
42365;DHT22;28498;54.400;18.566;2023-07-20T06:22:05;15.90;23.00
42365;DHT22;28498;54.400;18.566;2023-07-20T06:24:32;16.10;29.70
42365;DHT22;28498;54.400;18.566;2023-07-20T06:26:59;16.10;35.00
42365;DHT22;28498;54.400;18.566;2023-07-20T06:29:26;15.80;32.30
42365;DHT22;28498;54.400;18.566;2023-07-20T06:31:53;15.80;51.80
42365;DHT22;28498;54.400;18.566;2023-07-20T06:34:20;16.20;59.90
42365;DHT22;28498;54.400;18.566;2023-07-20T06:36:50;16.10;46.20
42365;DHT22;28498;54.400;18.566;2023-07-20T06:39:17;15.90;34.80
42365;DHT22;28498;54.400;18.566;2023-07-20T06:41:46;15.90;55.40
42365;DHT22;28498;54.400;18.566;2023-07-20T06:44:14;16.00;40.90
42365;DHT22;28498;54.400;18.566;2023-07-20T06:46:41;16.00;1.00
42365;DHT22;28498;54.400;18.566;2023-07-20T06:49:08;15.70;1.00
42365;DHT22;28498;54.400;18.566;2023-07-20T06:51:38;15.60;1.00
42365;DHT22;28498;54.400;18.566;2023-07-20T06:54:06;15.60;1.00
42365;DHT22;28498;54.400;18.566;2023-07-20T06:56:33;15.60;1.00
42365;DHT22;28498;54.400;18.566;2023-07-20T06:59:00;15.40;1.00
42365;DHT22;28498;54.400;18.566;2023-07-20T07:01:29;15.30;11.10
42365;DHT22;28498;54.400;18.566;2023-07-20T07:03:56;15.40;33.00
42365;DHT22;28498;54.400;18.566;2023-07-20T07:06:23;15.50;41.70
42365;DHT22;28498;54.400;18.566;2023-07-20T07:08:52;15.10;51.60
42365;DHT22;28498;54.400;18.566;2023-07-20T07:11:21;14.90;96.60
42365;DHT22;28498;54.400;18.566;2023-07-20T07:13:48;14.80;99.90
42365;DHT22;28498;54.400;18.566;2023-07-20T07:16:18;14.70;99.90
42365;DHT22;28498;54.400;18.566;2023-07-20T07:18:49;14.60;99.90
42365;DHT22;28498;54.400;18.566;2023-07-20T07:21:17;14.60;99.90
42365;DHT22;28498;54.400;18.566;2023-07-20T07:23:44;14.80;99.90
42365;DHT22;28498;54.400;18.566;2023-07-20T07:26:12;14.70;99.90
42365;DHT22;28498;54.400;18.566;2023-07-20T07:32:26;14.90;99.90
42365;DHT22;28498;54.400;18.566;2023-07-20T07:34:53;15.10;99.90
42365;DHT22;28498;54.400;18.566;2023-07-20T07:37:20;15.30;99.90
42365;DHT22;28498;54.400;18.566;2023-07-20T07:39:47;15.10;99.90
42365;DHT22;28498;54.400;18.566;2023-07-20T07:46:01;15.60;99.90
42365;DHT22;28498;54.400;18.566;2023-07-20T07:48:28;16.00;99.90
42365;DHT22;28498;54.400;18.566;2023-07-20T07:50:55;15.90;99.90
42365;DHT22;28498;54.400;18.566;2023-07-20T07:53:22;16.10;99.90
42365;DHT22;28498;54.400;18.566;2023-07-20T07:55:52;16.10;99.90
42365;DHT22;28498;54.400;18.566;2023-07-20T07:58:20;16.40;99.90
42365;DHT22;28498;54.400;18.566;2023-07-20T08:00:47;16.60;99.90
42365;DHT22;28498;54.400;18.566;2023-07-20T08:03:14;16.70;97.10
42365;DHT22;28498;54.400;18.566;2023-07-20T08:05:41;16.60;1.00
42365;DHT22;28498;54.400;18.566;2023-07-20T08:08:08;16.40;3.90
42365;DHT22;28498;54.400;18.566;2023-07-20T08:10:36;16.60;1.00
42365;DHT22;28498;54.400;18.566;2023-07-20T08:13:03;16.60;17.90
42365;DHT22;28498;54.400;18.566;2023-07-20T08:15:30;16.50;1.00
42365;DHT22;28498;54.400;18.566;2023-07-20T08:17:57;16.80;15.70
42365;DHT22;28498;54.400;18.566;2023-07-20T08:20:24;17.30;42.70
42365;DHT22;28498;54.400;18.566;2023-07-20T08:22:55;17.60;1.00
42365;DHT22;28498;54.400;18.566;2023-07-20T08:25:22;18.10;1.00
42365;DHT22;28498;54.400;18.566;2023-07-20T08:27:49;18.20;1.00
42365;DHT22;28498;54.400;18.566;2023-07-20T08:30:16;18.60;1.00
42365;DHT22;28498;54.400;18.566;2023-07-20T08:32:44;18.70;99.90
42365;DHT22;28498;54.400;18.566;2023-07-20T08:35:11;18.90;1.00
42365;DHT22;28498;54.400;18.566;2023-07-20T08:37:41;19.10;99.90
42365;DHT22;28498;54.400;18.566;2023-07-20T08:40:09;19.40;99.90
42365;DHT22;28498;54.400;18.566;2023-07-20T08:42:37;19.70;99.90
42365;DHT22;28498;54.400;18.566;2023-07-20T08:45:08;19.50;62.70
42365;DHT22;28498;54.400;18.566;2023-07-20T08:47:36;19.30;97.60
42365;DHT22;28498;54.400;18.566;2023-07-20T08:50:05;19.40;83.50
42365;DHT22;28498;54.400;18.566;2023-07-20T08:52:34;19.40;1.00
42365;DHT22;28498;54.400;18.566;2023-07-20T08:55:01;19.60;1.00
42365;DHT22;28498;54.400;18.566;2023-07-20T08:57:33;19.90;78.60
42365;DHT22;28498;54.400;18.566;2023-07-20T09:00:03;19.80;27.10
42365;DHT22;28498;54.400;18.566;2023-07-20T09:02:39;19.60;99.90
42365;DHT22;28498;54.400;18.566;2023-07-20T09:05:09;19.70;99.90
42365;DHT22;28498;54.400;18.566;2023-07-20T09:07:37;20.00;63.10
42365;DHT22;28498;54.400;18.566;2023-07-20T09:10:04;20.00;99.90
42365;DHT22;28498;54.400;18.566;2023-07-20T09:12:36;19.60;1.00
42365;DHT22;28498;54.400;18.566;2023-07-20T09:15:05;19.30;1.00
42365;DHT22;28498;54.400;18.566;2023-07-20T09:17:32;18.70;99.90
42365;DHT22;28498;54.400;18.566;2023-07-20T09:20:02;18.60;99.90
42365;DHT22;28498;54.400;18.566;2023-07-20T09:22:34;19.10;98.00
42365;DHT22;28498;54.400;18.566;2023-07-20T09:25:02;19.40;99.90
42365;DHT22;28498;54.400;18.566;2023-07-20T09:27:36;19.80;99.90
42365;DHT22;28498;54.400;18.566;2023-07-20T09:30:07;20.00;99.90
42365;DHT22;28498;54.400;18.566;2023-07-20T09:32:39;19.90;1.00
42365;DHT22;28498;54.400;18.566;2023-07-20T09:35:20;20.50;99.90
42365;DHT22;28498;54.400;18.566;2023-07-20T09:41:39;21.30;99.90
42365;DHT22;28498;54.400;18.566;2023-07-20T09:44:14;21.00;99.90
42365;DHT22;28498;54.400;18.566;2023-07-20T09:46:50;20.40;99.90
42365;DHT22;28498;54.400;18.566;2023-07-20T09:49:20;20.90;99.90
42365;DHT22;28498;54.400;18.566;2023-07-20T09:51:51;21.10;99.90
42365;DHT22;28498;54.400;18.566;2023-07-20T09:54:21;20.50;99.90
42365;DHT22;28498;54.400;18.566;2023-07-20T09:56:51;19.90;43.10
42365;DHT22;28498;54.400;18.566;2023-07-20T09:59:19;19.80;99.90
42365;DHT22;28498;54.400;18.566;2023-07-20T10:01:46;19.60;1.00
42365;DHT22;28498;54.400;18.566;2023-07-20T10:04:16;19.50;1.00
42365;DHT22;28498;54.400;18.566;2023-07-20T10:06:47;20.10;99.90
42365;DHT22;28498;54.400;18.566;2023-07-20T10:09:17;20.10;99.90
42365;DHT22;28498;54.400;18.566;2023-07-20T10:11:51;20.20;99.90
42365;DHT22;28498;54.400;18.566;2023-07-20T10:14:44;20.40;99.90
42365;DHT22;28498;54.400;18.566;2023-07-20T10:17:17;20.70;99.90
42365;DHT22;28498;54.400;18.566;2023-07-20T10:19:47;21.00;99.90
42365;DHT22;28498;54.400;18.566;2023-07-20T10:22:24;20.70;99.90
42365;DHT22;28498;54.400;18.566;2023-07-20T10:24:53;20.00;99.90
42365;DHT22;28498;54.400;18.566;2023-07-20T10:27:20;20.00;99.90
42365;DHT22;28498;54.400;18.566;2023-07-20T10:29:48;20.20;99.90
42365;DHT22;28498;54.400;18.566;2023-07-20T10:32:15;20.30;99.90
42365;DHT22;28498;54.400;18.566;2023-07-20T10:34:42;19.90;99.90
42365;DHT22;28498;54.400;18.566;2023-07-20T10:37:09;20.50;5.90
42365;DHT22;28498;54.400;18.566;2023-07-20T10:39:36;21.60;99.90
42365;DHT22;28498;54.400;18.566;2023-07-20T10:42:07;22.20;99.90
42365;DHT22;28498;54.400;18.566;2023-07-20T10:44:37;21.70;99.90
42365;DHT22;28498;54.400;18.566;2023-07-20T10:47:09;21.20;99.90
42365;DHT22;28498;54.400;18.566;2023-07-20T10:49:57;20.80;99.90
42365;DHT22;28498;54.400;18.566;2023-07-20T10:52:24;20.80;1.00
42365;DHT22;28498;54.400;18.566;2023-07-20T10:54:51;20.70;99.90
42365;DHT22;28498;54.400;18.566;2023-07-20T11:01:06;20.20;99.90
42365;DHT22;28498;54.400;18.566;2023-07-20T11:03:40;20.40;99.90
42365;DHT22;28498;54.400;18.566;2023-07-20T11:09:12;19.40;99.90
42365;DHT22;28498;54.400;18.566;2023-07-20T11:11:44;18.80;1.00
42365;DHT22;28498;54.400;18.566;2023-07-20T11:14:21;17.90;1.00
42365;DHT22;28498;54.400;18.566;2023-07-20T11:16:49;16.80;19.10
42365;DHT22;28498;54.400;18.566;2023-07-20T11:19:20;16.00;34.20
42365;DHT22;28498;54.400;18.566;2023-07-20T11:21:55;15.30;99.90
42365;DHT22;28498;54.400;18.566;2023-07-20T11:28:17;14.50;99.90
42365;DHT22;28498;54.400;18.566;2023-07-20T11:30:44;14.30;99.90
42365;DHT22;28498;54.400;18.566;2023-07-20T11:33:11;14.60;99.90
42365;DHT22;28498;54.400;18.566;2023-07-20T11:35:43;14.70;99.90
42365;DHT22;28498;54.400;18.566;2023-07-20T11:38:12;15.20;99.90
42365;DHT22;28498;54.400;18.566;2023-07-20T11:40:44;15.60;99.90
42365;DHT22;28498;54.400;18.566;2023-07-20T11:43:12;15.60;99.90
42365;DHT22;28498;54.400;18.566;2023-07-20T11:45:42;15.90;99.90
42365;DHT22;28498;54.400;18.566;2023-07-20T11:48:17;16.00;99.90
42365;DHT22;28498;54.400;18.566;2023-07-20T11:50:44;16.00;99.90
42365;DHT22;28498;54.400;18.566;2023-07-20T11:53:12;16.50;99.90
42365;DHT22;28498;54.400;18.566;2023-07-20T11:55:42;16.50;99.90
42365;DHT22;28498;54.400;18.566;2023-07-20T11:58:09;16.40;99.90
42365;DHT22;28498;54.400;18.566;2023-07-20T12:00:39;16.50;99.90
42365;DHT22;28498;54.400;18.566;2023-07-20T12:03:07;16.40;97.30
42365;DHT22;28498;54.400;18.566;2023-07-20T12:05:34;16.80;99.90
42365;DHT22;28498;54.400;18.566;2023-07-20T12:08:21;17.20;99.90
42365;DHT22;28498;54.400;18.566;2023-07-20T12:10:48;17.40;99.90
42365;DHT22;28498;54.400;18.566;2023-07-20T12:13:16;17.20;99.40
42365;DHT22;28498;54.400;18.566;2023-07-20T12:15:43;17.00;99.90
42365;DHT22;28498;54.400;18.566;2023-07-20T12:18:10;16.90;94.10
42365;DHT22;28498;54.400;18.566;2023-07-20T12:20:38;17.20;99.90
42365;DHT22;28498;54.400;18.566;2023-07-20T12:23:10;17.30;14.70
42365;DHT22;28498;54.400;18.566;2023-07-20T12:25:39;17.50;6.00
42365;DHT22;28498;54.400;18.566;2023-07-20T12:28:11;17.70;50.20
42365;DHT22;28498;54.400;18.566;2023-07-20T12:30:39;17.70;1.00
42365;DHT22;28498;54.400;18.566;2023-07-20T12:33:07;17.90;1.00
42365;DHT22;28498;54.400;18.566;2023-07-20T12:35:34;17.90;12.20
42365;DHT22;28498;54.400;18.566;2023-07-20T12:38:01;18.20;1.00
42365;DHT22;28498;54.400;18.566;2023-07-20T12:40:29;18.10;99.90
42365;DHT22;28498;54.400;18.566;2023-07-20T12:42:57;18.10;99.90
42365;DHT22;28498;54.400;18.566;2023-07-20T12:45:24;18.20;99.90
42365;DHT22;28498;54.400;18.566;2023-07-20T12:47:51;18.60;99.90
42365;DHT22;28498;54.400;18.566;2023-07-20T12:50:19;18.50;99.90
42365;DHT22;28498;54.400;18.566;2023-07-20T12:52:46;18.90;99.90
42365;DHT22;28498;54.400;18.566;2023-07-20T12:55:13;19.10;99.90
42365;DHT22;28498;54.400;18.566;2023-07-20T12:57:40;19.40;99.90
42365;DHT22;28498;54.400;18.566;2023-07-20T13:00:09;19.40;99.90
42365;DHT22;28498;54.400;18.566;2023-07-20T13:02:39;19.40;99.90
42365;DHT22;28498;54.400;18.566;2023-07-20T13:05:06;19.10;99.90
42365;DHT22;28498;54.400;18.566;2023-07-20T13:07:35;19.20;99.90
42365;DHT22;28498;54.400;18.566;2023-07-20T13:10:07;19.50;99.90
42365;DHT22;28498;54.400;18.566;2023-07-20T13:12:36;20.00;1.00
42365;DHT22;28498;54.400;18.566;2023-07-20T13:15:05;20.20;1.00
42365;DHT22;28498;54.400;18.566;2023-07-20T13:17:36;20.60;1.00
42365;DHT22;28498;54.400;18.566;2023-07-20T13:20:05;20.30;1.00
42365;DHT22;28498;54.400;18.566;2023-07-20T13:22:37;19.70;99.90
42365;DHT22;28498;54.400;18.566;2023-07-20T13:25:06;20.10;99.90
42365;DHT22;28498;54.400;18.566;2023-07-20T13:27:34;20.40;99.90
42365;DHT22;28498;54.400;18.566;2023-07-20T13:30:01;20.80;99.90
42365;DHT22;28498;54.400;18.566;2023-07-20T13:32:35;20.70;99.90
42365;DHT22;28498;54.400;18.566;2023-07-20T13:35:03;20.50;96.30
42365;DHT22;28498;54.400;18.566;2023-07-20T13:37:30;20.20;96.60
42365;DHT22;28498;54.400;18.566;2023-07-20T13:39:57;19.70;99.90
42365;DHT22;28498;54.400;18.566;2023-07-20T13:42:24;19.00;99.90
42365;DHT22;28498;54.400;18.566;2023-07-20T13:44:52;18.20;99.90
42365;DHT22;28498;54.400;18.566;2023-07-20T13:47:19;17.30;1.00
42365;DHT22;28498;54.400;18.566;2023-07-20T13:49:48;16.70;26.10
42365;DHT22;28498;54.400;18.566;2023-07-20T13:52:28;16.50;91.50
42365;DHT22;28498;54.400;18.566;2023-07-20T13:54:58;16.70;96.80
42365;DHT22;28498;54.400;18.566;2023-07-20T13:57:27;16.90;89.50
42365;DHT22;28498;54.400;18.566;2023-07-20T13:59:54;16.80;40.20
42365;DHT22;28498;54.400;18.566;2023-07-20T14:02:21;17.30;50.80
42365;DHT22;28498;54.400;18.566;2023-07-20T14:04:51;17.70;31.90
42365;DHT22;28498;54.400;18.566;2023-07-20T14:07:38;18.80;73.70
42365;DHT22;28498;54.400;18.566;2023-07-20T14:10:05;19.20;1.00
42365;DHT22;28498;54.400;18.566;2023-07-20T14:12:35;19.70;37.50
42365;DHT22;28498;54.400;18.566;2023-07-20T14:15:04;20.30;1.00
42365;DHT22;28498;54.400;18.566;2023-07-20T14:17:31;21.20;1.00
42365;DHT22;28498;54.400;18.566;2023-07-20T14:19:58;21.50;99.90
42365;DHT22;28498;54.400;18.566;2023-07-20T14:22:25;22.00;99.90
42365;DHT22;28498;54.400;18.566;2023-07-20T14:24:53;21.90;1.00
42365;DHT22;28498;54.400;18.566;2023-07-20T14:27:20;22.00;99.90
42365;DHT22;28498;54.400;18.566;2023-07-20T14:29:47;21.60;99.90
42365;DHT22;28498;54.400;18.566;2023-07-20T14:32:15;21.30;99.90
42365;DHT22;28498;54.400;18.566;2023-07-20T14:34:42;22.00;12.80
42365;DHT22;28498;54.400;18.566;2023-07-20T14:37:12;21.80;99.90
42365;DHT22;28498;54.400;18.566;2023-07-20T14:39:40;22.40;99.90
42365;DHT22;28498;54.400;18.566;2023-07-20T14:42:07;22.60;99.90
42365;DHT22;28498;54.400;18.566;2023-07-20T14:44:34;22.10;99.90
42365;DHT22;28498;54.400;18.566;2023-07-20T14:47:03;21.70;16.40
42365;DHT22;28498;54.400;18.566;2023-07-20T14:49:40;20.90;99.90
42365;DHT22;28498;54.400;18.566;2023-07-20T14:52:08;19.90;99.90
42365;DHT22;28498;54.400;18.566;2023-07-20T14:54:38;20.70;99.90
42365;DHT22;28498;54.400;18.566;2023-07-20T14:57:05;22.10;99.90
42365;DHT22;28498;54.400;18.566;2023-07-20T14:59:34;21.60;98.00
42365;DHT22;28498;54.400;18.566;2023-07-20T15:02:01;23.00;98.00
42365;DHT22;28498;54.400;18.566;2023-07-20T15:04:28;22.60;93.70
42365;DHT22;28498;54.400;18.566;2023-07-20T15:06:55;23.90;95.90
42365;DHT22;28498;54.400;18.566;2023-07-20T15:09:23;24.70;88.30
42365;DHT22;28498;54.400;18.566;2023-07-20T15:11:50;25.20;84.60
42365;DHT22;28498;54.400;18.566;2023-07-20T15:14:17;23.10;85.00
42365;DHT22;28498;54.400;18.566;2023-07-20T15:16:44;22.90;90.40
42365;DHT22;28498;54.400;18.566;2023-07-20T15:19:14;22.70;79.70
42365;DHT22;28498;54.400;18.566;2023-07-20T15:21:43;22.90;77.20
42365;DHT22;28498;54.400;18.566;2023-07-20T15:24:10;22.60;74.70
42365;DHT22;28498;54.400;18.566;2023-07-20T15:26:38;22.80;76.70
42365;DHT22;28498;54.400;18.566;2023-07-20T15:29:05;22.70;75.80
42365;DHT22;28498;54.400;18.566;2023-07-20T15:31:33;22.90;78.50
42365;DHT22;28498;54.400;18.566;2023-07-20T15:34:03;23.50;79.80
42365;DHT22;28498;54.400;18.566;2023-07-20T15:36:30;23.40;73.50
42365;DHT22;28498;54.400;18.566;2023-07-20T15:38:58;23.00;74.00
42365;DHT22;28498;54.400;18.566;2023-07-20T15:41:25;22.80;75.70
42365;DHT22;28498;54.400;18.566;2023-07-20T15:43:53;21.90;74.50
42365;DHT22;28498;54.400;18.566;2023-07-20T15:48:47;22.60;75.80
42365;DHT22;28498;54.400;18.566;2023-07-20T15:51:14;23.30;72.50
42365;DHT22;28498;54.400;18.566;2023-07-20T15:53:41;23.00;71.70
42365;DHT22;28498;54.400;18.566;2023-07-20T15:56:08;23.10;71.30
42365;DHT22;28498;54.400;18.566;2023-07-20T15:58:35;23.20;72.80
42365;DHT22;28498;54.400;18.566;2023-07-20T16:01:02;24.00;73.20
42365;DHT22;28498;54.400;18.566;2023-07-20T16:03:29;24.40;69.40
42365;DHT22;28498;54.400;18.566;2023-07-20T16:05:59;24.70;68.90
42365;DHT22;28498;54.400;18.566;2023-07-20T16:08:28;24.30;68.70